createdAt,value
2017-10-28T00:00:04.185Z,8.78
2017-10-28T00:01:04.125Z,8.81
2017-10-28T00:02:04.082Z,8.83
2017-10-28T00:03:04.057Z,8.84
2017-10-28T00:04:03.995Z,8.76
2017-10-28T00:05:03.959Z,8.76
2017-10-28T00:06:03.909Z,8.73
2017-10-28T00:07:03.876Z,8.79
2017-10-28T00:08:03.836Z,8.79
2017-10-28T00:09:03.783Z,8.73
2017-10-28T00:10:03.748Z,8.69
2017-10-28T00:11:03.720Z,8.72
2017-10-28T00:12:03.665Z,8.71
2017-10-28T00:13:03.629Z,8.72
2017-10-28T00:14:03.588Z,8.69
2017-10-28T00:15:03.547Z,8.71
2017-10-28T00:16:03.491Z,8.66
2017-10-28T00:17:03.464Z,8.66
2017-10-28T00:18:03.413Z,8.71
2017-10-28T00:19:03.368Z,8.60
2017-10-28T00:20:03.345Z,8.53
2017-10-28T00:21:03.292Z,8.63
2017-10-28T00:22:03.248Z,8.63
2017-10-28T00:23:03.239Z,8.62
2017-10-28T00:24:03.170Z,8.44
2017-10-28T00:25:03.138Z,8.53
2017-10-28T00:26:03.098Z,8.47
2017-10-28T00:27:03.059Z,8.53
2017-10-28T00:28:03.000Z,8.48
2017-10-28T00:29:02.956Z,8.55
2017-10-28T00:30:02.913Z,8.47
2017-10-28T00:31:02.865Z,8.53
2017-10-28T00:32:02.858Z,8.53
2017-10-28T00:33:02.791Z,8.57
2017-10-28T00:34:02.745Z,8.50
2017-10-28T00:35:02.704Z,8.53
2017-10-28T00:36:02.668Z,8.55
2017-10-28T00:37:02.618Z,8.47
2017-10-28T00:38:02.611Z,8.53
2017-10-28T00:39:02.531Z,8.54
2017-10-28T00:40:02.501Z,8.53
2017-10-28T00:41:02.451Z,8.55
2017-10-28T00:42:02.414Z,8.50
2017-10-28T00:43:02.372Z,8.50
2017-10-28T00:44:02.340Z,8.50
2017-10-28T00:45:02.292Z,8.40
2017-10-28T00:46:02.243Z,8.37
2017-10-28T00:47:02.205Z,8.37
2017-10-28T00:48:02.164Z,8.33
2017-10-28T00:49:02.121Z,8.32
2017-10-28T00:50:02.093Z,8.33
2017-10-28T00:51:02.047Z,8.33
2017-10-28T00:52:01.993Z,8.44
2017-10-28T00:53:01.950Z,8.36
2017-10-28T00:54:01.902Z,8.42
2017-10-28T00:55:01.860Z,8.50
2017-10-28T00:56:01.838Z,8.45
2017-10-28T00:57:01.812Z,8.50
2017-10-28T00:58:01.746Z,8.40
2017-10-28T00:59:01.715Z,8.51
2017-10-28T01:00:01.660Z,8.53
2017-10-28T01:01:01.637Z,8.53
2017-10-28T01:02:01.574Z,8.47
2017-10-28T01:03:01.556Z,8.47
2017-10-28T01:04:01.484Z,8.50
2017-10-28T01:05:01.446Z,8.62
2017-10-28T01:06:01.408Z,8.65
2017-10-28T01:07:01.366Z,8.62
2017-10-28T01:08:01.321Z,8.58
2017-10-28T01:09:01.284Z,8.69
2017-10-28T01:10:01.280Z,8.48
2017-10-28T01:11:01.202Z,8.55
2017-10-28T01:12:01.165Z,8.50
2017-10-28T01:13:01.120Z,8.68
2017-10-28T01:14:01.091Z,8.71
2017-10-28T01:15:01.067Z,8.68
2017-10-28T01:16:00.989Z,8.58
2017-10-28T01:17:00.968Z,8.58
2017-10-28T01:18:00.905Z,8.68
2017-10-28T01:19:00.867Z,8.65
2017-10-28T01:20:00.840Z,8.68
2017-10-28T01:21:00.788Z,8.66
2017-10-28T01:22:00.766Z,8.68
2017-10-28T01:23:00.710Z,8.65
2017-10-28T01:24:00.732Z,8.60
2017-10-28T01:25:00.649Z,8.55
2017-10-28T01:26:00.584Z,8.60
2017-10-28T01:27:00.537Z,8.62
2017-10-28T01:28:00.497Z,8.60
2017-10-28T01:29:00.461Z,8.63
2017-10-28T01:30:00.426Z,8.57
2017-10-28T01:31:00.401Z,8.58
2017-10-28T01:32:00.344Z,8.65
2017-10-28T01:33:00.304Z,8.68
2017-10-28T01:34:00.248Z,8.68
2017-10-28T01:35:00.212Z,8.62
2017-10-28T01:36:00.168Z,8.66
2017-10-28T01:37:00.130Z,8.73
2017-10-28T01:38:00.089Z,8.65
2017-10-28T01:39:00.037Z,8.69
2017-10-28T01:40:00.002Z,8.69
2017-10-28T01:40:59.983Z,8.71
2017-10-28T01:41:59.920Z,8.69
2017-10-28T01:42:59.892Z,8.71
2017-10-28T01:43:59.830Z,8.71
2017-10-28T01:44:59.807Z,8.73
2017-10-28T01:45:59.749Z,8.79
2017-10-28T01:46:59.703Z,8.81
2017-10-28T01:47:59.666Z,8.75
2017-10-28T01:48:59.629Z,8.76
2017-10-28T01:49:59.576Z,8.71
2017-10-28T01:50:59.551Z,8.69
2017-10-28T01:51:59.518Z,8.63
2017-10-28T01:52:59.457Z,8.65
2017-10-28T01:53:59.415Z,8.65
2017-10-28T01:54:59.368Z,8.68
2017-10-28T01:55:59.325Z,8.72
2017-10-28T01:56:59.332Z,8.79
2017-10-28T01:57:59.250Z,8.60
2017-10-28T01:58:59.205Z,8.72
2017-10-28T01:59:59.170Z,8.75
2017-10-28T02:00:59.125Z,8.75
2017-10-28T02:01:59.083Z,8.69
2017-10-28T02:02:59.035Z,8.68
2017-10-28T02:03:59.001Z,8.66
2017-10-28T02:04:58.982Z,8.62
2017-10-28T02:05:58.928Z,8.62
2017-10-28T02:06:58.884Z,8.68
2017-10-28T02:07:58.838Z,8.69
2017-10-28T02:08:58.794Z,8.71
2017-10-28T02:09:58.738Z,8.62
2017-10-28T02:10:58.701Z,8.48
2017-10-28T02:11:58.661Z,8.50
2017-10-28T02:12:58.624Z,8.50
2017-10-28T02:13:58.584Z,8.42
2017-10-28T02:14:58.540Z,8.33
2017-10-28T02:15:58.502Z,8.48
2017-10-28T02:16:58.469Z,8.48
2017-10-28T02:17:58.421Z,8.54
2017-10-28T02:18:58.377Z,8.53
2017-10-28T02:19:58.331Z,8.45
2017-10-28T02:20:58.285Z,8.48
2017-10-28T02:21:58.252Z,8.45
2017-10-28T02:22:58.204Z,8.35
2017-10-28T02:23:58.165Z,8.35
2017-10-28T02:24:58.133Z,8.42
2017-10-28T02:25:58.081Z,8.40
2017-10-28T02:26:58.045Z,8.42
2017-10-28T02:27:58.015Z,8.30
2017-10-28T02:28:57.957Z,8.37
2017-10-28T02:29:58.014Z,8.35
2017-10-28T02:30:57.877Z,8.33
2017-10-28T02:31:57.845Z,8.35
2017-10-28T02:32:57.790Z,8.36
2017-10-28T02:33:57.754Z,8.30
2017-10-28T02:34:57.712Z,8.29
2017-10-28T02:35:57.671Z,8.39
2017-10-28T02:36:57.622Z,8.37
2017-10-28T02:37:57.575Z,8.33
2017-10-28T02:38:57.533Z,8.37
2017-10-28T02:39:57.494Z,8.36
2017-10-28T02:40:57.452Z,8.28
2017-10-28T02:41:57.428Z,8.35
2017-10-28T02:42:57.360Z,8.30
2017-10-28T02:43:57.333Z,8.26
2017-10-28T02:44:57.299Z,8.28
2017-10-28T02:45:57.249Z,8.39
2017-10-28T02:46:57.196Z,8.36
2017-10-28T02:47:57.156Z,8.47
2017-10-28T02:48:57.110Z,8.47
2017-10-28T02:49:57.079Z,8.45
2017-10-28T02:50:57.040Z,8.45
2017-10-28T02:51:57.013Z,8.37
2017-10-28T02:52:56.957Z,8.48
2017-10-28T02:53:56.903Z,8.33
2017-10-28T02:54:56.861Z,8.50
2017-10-28T02:55:56.837Z,8.47
2017-10-28T02:56:56.781Z,8.39
2017-10-28T02:57:56.741Z,8.39
2017-10-28T02:58:56.701Z,8.47
2017-10-28T02:59:56.650Z,8.39
2017-10-28T03:00:56.641Z,8.32
2017-10-28T03:01:56.569Z,8.51
2017-10-28T03:02:56.511Z,8.48
2017-10-28T03:03:56.481Z,8.37
2017-10-28T03:04:56.441Z,8.47
2017-10-28T03:05:56.391Z,8.36
2017-10-28T03:06:56.342Z,8.48
2017-10-28T03:07:56.305Z,8.51
2017-10-28T03:08:56.282Z,8.54
2017-10-28T03:09:56.227Z,8.45
2017-10-28T03:10:56.228Z,8.47
2017-10-28T03:11:56.171Z,8.45
2017-10-28T03:12:56.123Z,8.47
2017-10-28T03:13:56.068Z,8.44
2017-10-28T03:14:56.016Z,8.50
2017-10-28T03:15:55.994Z,8.50
2017-10-28T03:16:55.927Z,8.51
2017-10-28T03:17:55.892Z,8.53
2017-10-28T03:18:55.849Z,8.48
2017-10-28T03:19:55.838Z,8.58
2017-10-28T03:20:55.760Z,8.63
2017-10-28T03:21:57.687Z,8.62
2017-10-28T03:22:55.696Z,8.62
2017-10-28T03:23:55.634Z,8.54
2017-10-28T03:24:55.618Z,8.48
2017-10-28T03:25:55.564Z,8.60
2017-10-28T03:26:55.517Z,8.66
2017-10-28T03:27:55.497Z,8.72
2017-10-28T03:28:55.433Z,8.60
2017-10-28T03:29:55.385Z,8.68
2017-10-28T03:30:55.338Z,8.71
2017-10-28T03:31:55.320Z,8.63
2017-10-28T03:32:55.276Z,8.63
2017-10-28T03:33:55.220Z,8.66
2017-10-28T03:34:55.179Z,8.62
2017-10-28T03:35:55.132Z,8.51
2017-10-28T03:36:55.091Z,8.51
2017-10-28T03:37:55.068Z,8.53
2017-10-28T03:38:55.019Z,8.57
2017-10-28T03:39:54.967Z,8.62
2017-10-28T03:40:54.924Z,8.60
2017-10-28T03:41:54.900Z,8.55
2017-10-28T03:42:54.854Z,8.63
2017-10-28T03:43:54.831Z,8.72
2017-10-28T03:44:54.761Z,8.66
2017-10-28T03:45:54.745Z,8.78
2017-10-28T03:46:54.672Z,8.68
2017-10-28T03:47:54.644Z,8.66
2017-10-28T03:48:54.592Z,8.68
2017-10-28T03:49:54.558Z,8.69
2017-10-28T03:50:54.512Z,8.73
2017-10-28T03:51:54.471Z,8.71
2017-10-28T03:52:54.422Z,8.81
2017-10-28T03:53:54.398Z,8.73
2017-10-28T03:54:54.334Z,8.72
2017-10-28T03:55:54.315Z,8.76
2017-10-28T03:56:54.262Z,8.69
2017-10-28T03:57:54.233Z,8.63
2017-10-28T03:58:54.188Z,8.76
2017-10-28T03:59:54.138Z,8.72
2017-10-28T04:00:54.100Z,8.75
2017-10-28T04:01:54.065Z,8.69
2017-10-28T04:02:54.037Z,8.66
2017-10-28T04:03:53.973Z,8.65
2017-10-28T04:04:53.952Z,8.71
2017-10-28T04:05:53.901Z,8.71
2017-10-28T04:06:53.845Z,8.71
2017-10-28T04:07:53.796Z,8.75
2017-10-28T04:08:53.808Z,8.73
2017-10-28T04:09:53.723Z,8.76
2017-10-28T04:10:53.683Z,8.72
2017-10-28T04:11:53.625Z,8.83
2017-10-28T04:12:53.586Z,8.72
2017-10-28T04:13:53.565Z,8.66
2017-10-28T04:14:53.515Z,8.79
2017-10-28T04:15:53.470Z,8.79
2017-10-28T04:16:53.438Z,8.78
2017-10-28T04:17:53.397Z,8.76
2017-10-28T04:18:53.348Z,8.75
2017-10-28T04:19:53.335Z,8.81
2017-10-28T04:20:53.273Z,8.84
2017-10-28T04:21:53.220Z,8.88
2017-10-28T04:22:53.179Z,8.79
2017-10-28T04:23:53.137Z,8.73
2017-10-28T04:24:53.086Z,8.86
2017-10-28T04:25:53.077Z,8.78
2017-10-28T04:26:53.014Z,8.83
2017-10-28T04:27:52.977Z,8.72
2017-10-28T04:28:52.919Z,8.68
2017-10-28T04:29:52.917Z,8.69
2017-10-28T04:30:52.843Z,8.68
2017-10-28T04:31:52.807Z,8.73
2017-10-28T04:32:52.774Z,8.69
2017-10-28T04:33:52.727Z,8.71
2017-10-28T04:34:52.666Z,8.68
2017-10-28T04:35:52.642Z,8.69
2017-10-28T04:36:52.629Z,8.68
2017-10-28T04:37:52.545Z,8.62
2017-10-28T04:38:52.533Z,8.60
2017-10-28T04:39:52.498Z,8.63
2017-10-28T04:40:52.438Z,8.58
2017-10-28T04:41:52.406Z,8.51
2017-10-28T04:42:52.344Z,8.63
2017-10-28T04:43:52.301Z,8.73
2017-10-28T04:44:52.267Z,8.63
2017-10-28T04:45:52.213Z,8.57
2017-10-28T04:46:52.207Z,8.60
2017-10-28T04:47:52.139Z,8.71
2017-10-28T04:48:52.092Z,8.62
2017-10-28T04:49:52.103Z,8.66
2017-10-28T04:50:52.009Z,8.66
2017-10-28T04:51:51.960Z,8.66
2017-10-28T04:52:51.943Z,8.75
2017-10-28T04:53:51.901Z,8.69
2017-10-28T04:54:51.842Z,8.66
2017-10-28T04:55:51.798Z,8.71
2017-10-28T04:56:51.766Z,8.65
2017-10-28T04:57:51.728Z,8.62
2017-10-28T04:58:51.673Z,8.53
2017-10-28T04:59:51.626Z,8.50
2017-10-28T05:00:51.591Z,8.47
2017-10-28T05:01:51.553Z,8.50
2017-10-28T05:02:51.501Z,8.60
2017-10-28T05:03:51.476Z,8.72
2017-10-28T05:04:51.431Z,8.65
2017-10-28T05:05:51.400Z,8.54
2017-10-28T05:06:51.340Z,8.65
2017-10-28T05:07:51.334Z,8.68
2017-10-28T05:08:51.273Z,8.66
2017-10-28T05:09:51.222Z,8.63
2017-10-28T05:10:51.167Z,8.65
2017-10-28T05:11:51.138Z,8.73
2017-10-28T05:12:51.112Z,8.66
2017-10-28T05:13:51.059Z,8.68
2017-10-28T05:14:51.024Z,8.66
2017-10-28T05:15:50.990Z,8.75
2017-10-28T05:16:50.925Z,8.65
2017-10-28T05:17:50.890Z,8.72
2017-10-28T05:18:50.855Z,8.60
2017-10-28T05:19:50.813Z,8.63
2017-10-28T05:20:50.776Z,8.72
2017-10-28T05:21:50.744Z,8.60
2017-10-28T05:22:50.712Z,8.72
2017-10-28T05:23:50.642Z,8.79
2017-10-28T05:24:50.600Z,8.71
2017-10-28T05:25:50.571Z,8.76
2017-10-28T05:26:50.510Z,8.79
2017-10-28T05:27:50.489Z,8.75
2017-10-28T05:28:50.425Z,8.79
2017-10-28T05:29:50.405Z,8.71
2017-10-28T05:30:50.357Z,8.73
2017-10-28T05:31:50.303Z,8.75
2017-10-28T05:32:50.286Z,8.76
2017-10-28T05:33:50.234Z,8.79
2017-10-28T05:34:50.196Z,8.79
2017-10-28T05:35:50.157Z,8.73
2017-10-28T05:36:50.115Z,8.75
2017-10-28T05:37:50.052Z,8.79
2017-10-28T05:38:50.013Z,8.86
2017-10-28T05:39:50.007Z,8.83
2017-10-28T05:40:49.942Z,8.81
2017-10-28T05:41:49.897Z,8.79
2017-10-28T05:42:49.859Z,8.84
2017-10-28T05:43:49.799Z,8.86
2017-10-28T05:44:49.756Z,8.87
2017-10-28T05:45:49.736Z,8.87
2017-10-28T05:46:49.683Z,8.87
2017-10-28T05:47:49.624Z,8.83
2017-10-28T05:48:49.597Z,8.71
2017-10-28T05:49:49.547Z,8.86
2017-10-28T05:50:49.510Z,8.73
2017-10-28T05:51:49.487Z,8.72
2017-10-28T05:52:49.432Z,8.73
2017-10-28T05:53:49.399Z,8.83
2017-10-28T05:54:49.359Z,8.84
2017-10-28T05:55:49.306Z,8.86
2017-10-28T05:56:49.256Z,8.79
2017-10-28T05:57:49.221Z,8.90
2017-10-28T05:58:49.174Z,8.86
2017-10-28T05:59:49.176Z,8.90
2017-10-28T06:00:49.117Z,8.84
2017-10-28T06:01:49.055Z,8.84
2017-10-28T06:02:49.015Z,8.90
2017-10-28T06:03:48.981Z,8.90
2017-10-28T06:04:48.921Z,8.96
2017-10-28T06:05:48.903Z,8.97
2017-10-28T06:06:48.843Z,9.13
2017-10-28T06:07:48.803Z,9.02
2017-10-28T06:08:48.779Z,8.99
2017-10-28T06:09:48.767Z,9.02
2017-10-28T06:10:48.685Z,8.97
2017-10-28T06:11:48.639Z,8.90
2017-10-28T06:12:48.613Z,8.96
2017-10-28T06:13:48.560Z,8.91
2017-10-28T06:14:48.513Z,8.99
2017-10-28T06:15:48.470Z,8.91
2017-10-28T06:16:48.458Z,8.84
2017-10-28T06:17:48.392Z,8.97
2017-10-28T06:18:48.346Z,8.94
2017-10-28T06:19:48.303Z,8.96
2017-10-28T06:20:48.265Z,8.96
2017-10-28T06:21:48.219Z,8.94
2017-10-28T06:22:48.209Z,8.99
2017-10-28T06:23:48.153Z,9.01
2017-10-28T06:24:48.106Z,9.05
2017-10-28T06:25:48.050Z,9.06
2017-10-28T06:26:48.075Z,9.09
2017-10-28T06:27:47.973Z,8.96
2017-10-28T06:28:47.935Z,9.05
2017-10-28T06:29:47.885Z,9.01
2017-10-28T06:30:47.853Z,9.12
2017-10-28T06:31:47.829Z,9.16
2017-10-28T06:32:47.790Z,9.12
2017-10-28T06:33:47.746Z,9.06
2017-10-28T06:34:47.711Z,9.12
2017-10-28T06:35:47.679Z,9.04
2017-10-28T06:36:47.602Z,9.09
2017-10-28T06:37:47.586Z,9.12
2017-10-28T06:38:47.516Z,9.04
2017-10-28T06:39:47.488Z,9.13
2017-10-28T06:40:47.436Z,9.18
2017-10-28T06:41:47.424Z,9.16
2017-10-28T06:42:47.352Z,9.21
2017-10-28T06:43:47.320Z,9.15
2017-10-28T06:44:47.268Z,9.18
2017-10-28T06:45:47.253Z,9.21
2017-10-28T06:46:47.197Z,9.18
2017-10-28T06:47:47.148Z,9.21
2017-10-28T06:48:47.097Z,9.25
2017-10-28T06:49:47.088Z,9.27
2017-10-28T06:50:47.021Z,9.23
2017-10-28T06:51:46.982Z,9.25
2017-10-28T06:52:46.966Z,9.25
2017-10-28T06:53:46.898Z,9.30
2017-10-28T06:54:46.858Z,9.42
2017-10-28T06:55:46.830Z,9.32
2017-10-28T06:56:46.772Z,9.38
2017-10-28T06:57:46.723Z,9.39
2017-10-28T06:58:46.701Z,9.49
2017-10-28T06:59:46.658Z,9.34
2017-10-28T07:00:46.647Z,9.38
2017-10-28T07:01:46.580Z,9.42
2017-10-28T07:02:46.528Z,9.35
2017-10-28T07:03:46.507Z,9.46
2017-10-28T07:04:46.469Z,9.38
2017-10-28T07:05:46.403Z,9.43
2017-10-28T07:06:46.355Z,9.34
2017-10-28T07:07:46.336Z,9.40
2017-10-28T07:08:46.287Z,9.42
2017-10-28T07:09:46.227Z,9.42
2017-10-28T07:10:46.214Z,9.42
2017-10-28T07:11:46.150Z,9.39
2017-10-28T07:12:46.108Z,9.39
2017-10-28T07:13:46.103Z,9.39
2017-10-28T07:14:46.029Z,9.45
2017-10-28T07:15:46.005Z,9.40
2017-10-28T07:16:45.955Z,9.40
2017-10-28T07:17:45.923Z,9.48
2017-10-28T07:18:45.865Z,9.45
2017-10-28T07:19:45.824Z,9.45
2017-10-28T07:20:45.795Z,9.52
2017-10-28T07:21:45.740Z,9.52
2017-10-28T07:22:45.690Z,9.49
2017-10-28T07:23:45.650Z,9.52
2017-10-28T07:24:45.611Z,9.49
2017-10-28T07:25:45.579Z,9.48
2017-10-28T07:26:45.574Z,9.52
2017-10-28T07:27:45.525Z,9.48
2017-10-28T07:28:45.580Z,9.45
2017-10-28T07:29:45.457Z,9.49
2017-10-28T07:30:45.381Z,9.63
2017-10-28T07:31:45.336Z,9.64
2017-10-28T07:32:45.298Z,9.61
2017-10-28T07:33:45.259Z,9.56
2017-10-28T07:34:45.194Z,9.67
2017-10-28T07:35:45.180Z,9.50
2017-10-28T07:36:45.124Z,9.61
2017-10-28T07:37:45.086Z,9.50
2017-10-28T07:38:45.039Z,9.60
2017-10-28T07:39:44.991Z,9.53
2017-10-28T07:40:44.971Z,9.56
2017-10-28T07:41:44.936Z,9.66
2017-10-28T07:42:44.879Z,9.60
2017-10-28T07:43:44.844Z,9.57
2017-10-28T07:44:44.788Z,9.56
2017-10-28T07:45:44.767Z,9.63
2017-10-28T07:46:44.713Z,9.67
2017-10-28T07:47:44.670Z,9.58
2017-10-28T07:48:44.632Z,9.53
2017-10-28T07:49:44.631Z,9.66
2017-10-28T07:50:44.563Z,9.71
2017-10-28T07:51:44.506Z,9.58
2017-10-28T07:52:44.465Z,9.63
2017-10-28T07:53:44.453Z,9.70
2017-10-28T07:54:44.394Z,9.58
2017-10-28T07:55:44.373Z,9.63
2017-10-28T07:56:44.323Z,9.56
2017-10-28T07:57:44.284Z,9.56
2017-10-28T07:58:44.230Z,9.75
2017-10-28T07:59:44.186Z,9.60
2017-10-28T08:00:44.150Z,9.58
2017-10-28T08:01:44.110Z,9.58
2017-10-28T08:02:44.068Z,9.64
2017-10-28T08:03:44.032Z,9.67
2017-10-28T08:04:43.982Z,9.66
2017-10-28T08:05:43.934Z,9.61
2017-10-28T08:06:43.895Z,9.66
2017-10-28T08:07:43.867Z,9.67
2017-10-28T08:08:43.822Z,9.57
2017-10-28T08:09:43.774Z,9.67
2017-10-28T08:10:43.733Z,9.56
2017-10-28T08:11:43.689Z,9.66
2017-10-28T08:12:43.667Z,9.56
2017-10-28T08:13:43.607Z,9.60
2017-10-28T08:14:43.576Z,9.66
2017-10-28T08:15:43.542Z,9.52
2017-10-28T08:16:43.512Z,9.70
2017-10-28T08:17:43.460Z,9.61
2017-10-28T08:18:43.409Z,9.56
2017-10-28T08:19:43.371Z,9.57
2017-10-28T08:20:43.335Z,9.58
2017-10-28T08:21:43.281Z,9.66
2017-10-28T08:22:43.249Z,9.58
2017-10-28T08:23:43.216Z,9.60
2017-10-28T08:24:43.185Z,9.57
2017-10-28T08:25:43.137Z,9.58
2017-10-28T08:26:43.095Z,9.64
2017-10-28T08:27:43.036Z,9.63
2017-10-28T08:28:43.020Z,9.67
2017-10-28T08:29:43.007Z,9.56
2017-10-28T08:30:42.947Z,9.56
2017-10-28T08:31:42.880Z,9.63
2017-10-28T08:32:42.830Z,9.64
2017-10-28T08:33:42.801Z,9.60
2017-10-28T08:34:42.750Z,9.60
2017-10-28T08:35:42.713Z,9.58
2017-10-28T08:36:42.676Z,9.58
2017-10-28T08:37:42.644Z,9.57
2017-10-28T08:38:42.596Z,9.60
2017-10-28T08:39:42.584Z,9.64
2017-10-28T08:40:42.504Z,9.64
2017-10-28T08:41:42.470Z,9.67
2017-10-28T08:42:42.433Z,9.64
2017-10-28T08:43:42.397Z,9.66
2017-10-28T08:44:42.333Z,9.58
2017-10-28T08:45:42.302Z,9.68
2017-10-28T08:46:42.261Z,9.68
2017-10-28T08:47:42.220Z,9.56
2017-10-28T08:48:42.186Z,9.56
2017-10-28T08:49:42.150Z,9.61
2017-10-28T08:50:42.117Z,9.66
2017-10-28T08:51:42.062Z,9.66
2017-10-28T08:52:42.007Z,9.58
2017-10-28T08:53:41.969Z,9.68
2017-10-28T08:54:41.940Z,9.66
2017-10-28T08:55:41.898Z,9.63
2017-10-28T08:56:41.851Z,9.61
2017-10-28T08:57:41.829Z,9.60
2017-10-28T08:58:41.762Z,9.67
2017-10-28T08:59:41.730Z,9.63
2017-10-28T09:00:41.694Z,9.64
2017-10-28T09:01:41.641Z,9.66
2017-10-28T09:02:41.610Z,9.68
2017-10-28T09:03:41.574Z,9.70
2017-10-28T09:04:41.567Z,9.58
2017-10-28T09:05:41.503Z,9.67
2017-10-28T09:06:41.455Z,9.71
2017-10-28T09:07:41.422Z,9.71
2017-10-28T09:08:41.378Z,9.75
2017-10-28T09:09:41.321Z,9.70
2017-10-28T09:10:41.292Z,9.68
2017-10-28T09:11:41.255Z,9.78
2017-10-28T09:12:41.198Z,9.79
2017-10-28T09:13:41.159Z,9.78
2017-10-28T09:14:41.113Z,9.79
2017-10-28T09:15:41.094Z,9.76
2017-10-28T09:16:41.054Z,9.88
2017-10-28T09:17:41.002Z,9.75
2017-10-28T09:18:40.959Z,9.78
2017-10-28T09:19:40.907Z,9.75
2017-10-28T09:20:40.884Z,9.82
2017-10-28T09:21:40.852Z,9.81
2017-10-28T09:22:40.799Z,9.75
2017-10-28T09:23:40.759Z,9.71
2017-10-28T09:24:40.716Z,9.82
2017-10-28T09:25:40.679Z,9.75
2017-10-28T09:26:40.643Z,9.88
2017-10-28T09:27:40.585Z,9.89
2017-10-28T09:28:40.556Z,9.83
2017-10-28T09:29:40.534Z,9.86
2017-10-28T09:30:40.483Z,9.86
2017-10-28T09:31:40.430Z,9.94
2017-10-28T09:32:40.396Z,9.96
2017-10-28T09:33:40.346Z,9.99
2017-10-28T09:34:40.309Z,9.96
2017-10-28T09:35:40.269Z,9.96
2017-10-28T09:36:40.225Z,9.96
2017-10-28T09:37:40.185Z,9.91
2017-10-28T09:38:40.194Z,9.89
2017-10-28T09:39:40.095Z,10.00
2017-10-28T09:40:40.052Z,10.00
2017-10-28T09:41:40.038Z,9.99
2017-10-28T09:42:39.994Z,9.96
2017-10-28T09:43:39.926Z,9.97
2017-10-28T09:44:39.900Z,9.93
2017-10-28T09:45:39.874Z,9.93
2017-10-28T09:46:39.840Z,9.97
2017-10-28T09:47:39.791Z,9.91
2017-10-28T09:48:39.779Z,9.81
2017-10-28T09:49:41.874Z,9.96
2017-10-28T09:50:39.686Z,9.89
2017-10-28T09:51:39.695Z,9.93
2017-10-28T09:52:39.589Z,9.94
2017-10-28T09:53:39.537Z,9.88
2017-10-28T09:54:39.507Z,9.97
2017-10-28T09:55:39.455Z,9.96
2017-10-28T09:56:39.398Z,9.97
2017-10-28T09:57:39.373Z,9.94
2017-10-28T09:58:39.325Z,10.01
2017-10-28T09:59:39.291Z,9.97
2017-10-28T10:00:39.248Z,9.99
2017-10-28T10:01:39.240Z,9.96
2017-10-28T10:02:39.163Z,9.91
2017-10-28T10:03:39.127Z,9.91
2017-10-28T10:04:39.080Z,9.99
2017-10-28T10:05:39.045Z,10.00
2017-10-28T10:06:39.019Z,10.00
2017-10-28T10:07:38.966Z,10.06
2017-10-28T10:08:38.926Z,9.99
2017-10-28T10:09:38.890Z,10.00
2017-10-28T10:10:38.846Z,10.09
2017-10-28T10:11:38.803Z,10.10
2017-10-28T10:12:38.761Z,10.12
2017-10-28T10:13:38.721Z,10.15
2017-10-28T10:14:38.689Z,10.19
2017-10-28T10:15:38.656Z,10.17
2017-10-28T10:16:38.603Z,10.10
2017-10-28T10:17:38.571Z,10.18
2017-10-28T10:18:38.529Z,10.06
2017-10-28T10:19:38.475Z,10.06
2017-10-28T10:20:38.447Z,10.03
2017-10-28T10:21:38.390Z,10.15
2017-10-28T10:22:38.357Z,10.10
2017-10-28T10:23:38.327Z,10.15
2017-10-28T10:24:38.291Z,10.15
2017-10-28T10:25:38.282Z,10.24
2017-10-28T10:26:38.198Z,10.17
2017-10-28T10:27:38.174Z,10.19
2017-10-28T10:28:38.115Z,10.22
2017-10-28T10:29:38.101Z,10.26
2017-10-28T10:30:38.035Z,10.22
2017-10-28T10:31:38.035Z,10.19
2017-10-28T10:32:37.962Z,10.19
2017-10-28T10:33:37.905Z,10.21
2017-10-28T10:34:37.872Z,10.18
2017-10-28T10:35:37.838Z,10.15
2017-10-28T10:36:37.805Z,10.18
2017-10-28T10:37:37.757Z,10.19
2017-10-28T10:38:37.712Z,10.19
2017-10-28T10:39:37.679Z,10.21
2017-10-28T10:40:37.644Z,10.21
2017-10-28T10:41:37.580Z,10.19
2017-10-28T10:42:37.556Z,10.17
2017-10-28T10:43:37.512Z,10.15
2017-10-28T10:44:37.469Z,10.17
2017-10-28T10:45:37.433Z,10.15
2017-10-28T10:46:37.429Z,10.24
2017-10-28T10:47:37.365Z,10.17
2017-10-28T10:48:37.324Z,10.14
2017-10-28T10:49:37.266Z,10.17
2017-10-28T10:50:37.231Z,10.17
2017-10-28T10:51:37.180Z,10.15
2017-10-28T10:52:37.152Z,10.24
2017-10-28T10:53:37.124Z,10.22
2017-10-28T10:54:37.065Z,10.30
2017-10-28T10:55:37.061Z,10.39
2017-10-28T10:56:36.991Z,10.37
2017-10-28T10:57:36.960Z,10.33
2017-10-28T10:58:36.906Z,10.32
2017-10-28T10:59:36.928Z,10.39
2017-10-28T11:00:36.824Z,10.40
2017-10-28T11:01:36.795Z,10.28
2017-10-28T11:02:36.726Z,10.28
2017-10-28T11:03:36.706Z,10.39
2017-10-28T11:04:36.674Z,10.47
2017-10-28T11:05:36.634Z,10.44
2017-10-28T11:06:36.582Z,10.44
2017-10-28T11:07:36.547Z,10.58
2017-10-28T11:08:36.508Z,10.46
2017-10-28T11:09:36.482Z,10.51
2017-10-28T11:10:36.415Z,10.46
2017-10-28T11:11:36.374Z,10.51
2017-10-28T11:12:36.371Z,10.43
2017-10-28T11:13:36.289Z,10.51
2017-10-28T11:14:36.280Z,10.52
2017-10-28T11:15:36.212Z,10.46
2017-10-28T11:16:36.176Z,10.58
2017-10-28T11:17:36.137Z,10.44
2017-10-28T11:18:36.098Z,10.52
2017-10-28T11:19:36.068Z,10.47
2017-10-28T11:20:36.016Z,10.47
2017-10-28T11:21:36.049Z,10.47
2017-10-28T11:22:35.926Z,10.51
2017-10-28T11:23:35.907Z,10.40
2017-10-28T11:24:35.862Z,10.42
2017-10-28T11:25:35.825Z,10.53
2017-10-28T11:26:35.770Z,10.46
2017-10-28T11:27:35.738Z,10.44
2017-10-28T11:28:35.690Z,10.51
2017-10-28T11:29:35.661Z,10.47
2017-10-28T11:30:35.627Z,10.40
2017-10-28T11:31:35.570Z,10.46
2017-10-28T11:32:35.564Z,10.36
2017-10-28T11:33:35.514Z,10.40
2017-10-28T11:34:35.520Z,10.39
2017-10-28T11:35:35.423Z,10.37
2017-10-28T11:36:35.375Z,10.36
2017-10-28T11:37:35.365Z,10.34
2017-10-28T11:38:35.286Z,10.33
2017-10-28T11:39:35.281Z,10.30
2017-10-28T11:40:35.227Z,10.42
2017-10-28T11:41:35.187Z,10.42
2017-10-28T11:42:35.133Z,10.34
2017-10-28T11:43:35.107Z,10.33
2017-10-28T11:44:35.050Z,10.34
2017-10-28T11:45:35.023Z,10.39
2017-10-28T11:46:34.968Z,10.39
2017-10-28T11:47:34.937Z,10.37
2017-10-28T11:48:34.890Z,10.30
2017-10-28T11:49:34.850Z,10.39
2017-10-28T11:50:34.820Z,10.30
2017-10-28T11:51:34.780Z,10.39
2017-10-28T11:52:34.747Z,10.34
2017-10-28T11:53:34.715Z,10.32
2017-10-28T11:54:34.674Z,10.39
2017-10-28T11:55:34.604Z,10.46
2017-10-28T11:56:34.578Z,10.51
2017-10-28T11:57:34.538Z,10.46
2017-10-28T11:58:34.512Z,10.44
2017-10-28T11:59:34.467Z,10.42
2017-10-28T12:00:34.416Z,10.44
2017-10-28T12:01:34.374Z,10.53
2017-10-28T12:02:34.338Z,10.51
2017-10-28T12:03:34.312Z,10.44
2017-10-28T12:04:34.255Z,10.53
2017-10-28T12:05:34.207Z,10.43
2017-10-28T12:06:34.186Z,10.59
2017-10-28T12:07:34.138Z,10.62
2017-10-28T12:08:34.083Z,10.58
2017-10-28T12:09:34.077Z,10.56
2017-10-28T12:10:34.015Z,10.44
2017-10-28T12:11:33.975Z,10.56
2017-10-28T12:12:33.947Z,10.58
2017-10-28T12:13:33.908Z,10.59
2017-10-28T12:14:33.958Z,10.58
2017-10-28T12:15:33.818Z,10.56
2017-10-28T12:16:33.774Z,10.59
2017-10-28T12:17:33.728Z,10.58
2017-10-28T12:18:33.718Z,10.52
2017-10-28T12:19:33.646Z,10.51
2017-10-28T12:20:33.609Z,10.42
2017-10-28T12:21:33.559Z,10.44
2017-10-28T12:22:33.545Z,10.52
2017-10-28T12:23:33.492Z,10.47
2017-10-28T12:24:33.460Z,10.46
2017-10-28T12:25:33.406Z,10.37
2017-10-28T12:26:33.396Z,10.42
2017-10-28T12:27:33.335Z,10.44
2017-10-28T12:28:33.315Z,10.36
2017-10-28T12:29:33.256Z,10.37
2017-10-28T12:30:33.217Z,10.37
2017-10-28T12:31:33.733Z,10.39
2017-10-28T12:32:33.143Z,10.40
2017-10-28T12:33:33.092Z,10.39
2017-10-28T12:34:33.065Z,10.32
2017-10-28T12:35:33.034Z,10.44
2017-10-28T12:36:32.984Z,10.46
2017-10-28T12:37:32.946Z,10.43
2017-10-28T12:38:32.886Z,10.37
2017-10-28T12:39:32.863Z,10.40
2017-10-28T12:40:32.827Z,10.43
2017-10-28T12:41:32.788Z,10.46
2017-10-28T12:42:32.741Z,10.42
2017-10-28T12:43:32.715Z,10.44
2017-10-28T12:44:32.665Z,10.42
2017-10-28T12:45:32.632Z,10.33
2017-10-28T12:46:32.570Z,10.39
2017-10-28T12:47:32.538Z,10.36
2017-10-28T12:48:32.506Z,10.40
2017-10-28T12:49:32.501Z,10.26
2017-10-28T12:50:32.408Z,10.34
2017-10-28T12:51:32.364Z,10.26
2017-10-28T12:52:32.322Z,10.25
2017-10-28T12:53:32.298Z,10.26
2017-10-28T12:54:32.233Z,10.33
2017-10-28T12:55:32.222Z,10.26
2017-10-28T12:56:32.167Z,10.19
2017-10-28T12:57:32.158Z,10.25
2017-10-28T12:58:32.066Z,10.28
2017-10-28T12:59:32.042Z,10.32
2017-10-28T13:00:32.002Z,10.32
2017-10-28T13:01:31.987Z,10.26
2017-10-28T13:02:31.927Z,10.24
2017-10-28T13:03:31.908Z,10.34
2017-10-28T13:04:31.857Z,10.28
2017-10-28T13:05:31.829Z,10.26
2017-10-28T13:06:31.777Z,10.30
2017-10-28T13:07:31.724Z,10.25
2017-10-28T13:08:31.701Z,10.30
2017-10-28T13:09:31.649Z,10.28
2017-10-28T13:10:31.603Z,10.25
2017-10-28T13:11:31.568Z,10.33